aviador You're here:

CYHU Decoded Metar

MONTREAL in QC, CANADA
Report Time2018-01-18 13:00:00
UTC Time2018-01-18 13:56:27
Flight Rules vfr VFR
Wind240° at 14 Gusting to 19 kt
W.Decomp.*RWY 24: 13.5 kt HW 3.9 kt RCW
RWY 28: 12.8 kt HW 5.7 kt LCW
W.Rank240° ranks 1
Current wind is above 240° avg. (12.0)
Visibility9656 m
Phenomena:Light Snow
Clouds:Overcast 047 Hf
Expected CloudBase > 1,200 ft AGL from Temp-Dew spread
Ceiling4,700 ft
Temp-5°C (ISA -20)
Dew Point-8°C (80% RH)
AAT-12.9°C
QNH1014 hPa
Density Alt-2,349 ft
Elevation89 ft
Report Wrong Elevation
Raw Report
CYHU 181300Z AUTO 24014G19KT 6SM -SN OVC047 M05/M08 A2993 RMK
SLP137=

Extra information for CYHU:More info

Metar Taf Metar & Taf Last 4 Metars F.Rules Stats Wind Profile Meteogram Temp Stats Airport Information Weather charts Add Link Nearby VenuesMetar ALERT Operation Metar Decoded Social comments